Time;durP1;ratioP1;P1;durP2;ratioP2;P2;SDS_P1;SDS_P2;PMS_P1;PMS_P2;Temp;Humidity;BMP_temperature;BMP_pressure;BME280_temperature;BME280_humidity;BME280_pressure;Samples;Min_cycle;Max_cycle;Signal;HPM_P1;HPM_P2
2022/11/10 00:01:52;;;;;;;136.95;91.13;;;;;;;;;;5080096;28;20455;-73
2022/11/10 00:04:17;;;;;;;131.77;90.32;;;;;;;;;;5081488;28;20371;-73
2022/11/10 00:06:43;;;;;;;127.85;90.68;;;;;;;;;;5081074;28;20077;-76
2022/11/10 00:09:09;;;;;;;137.38;94.32;;;;;;;;;;5075952;28;20027;-73
2022/11/10 00:11:34;;;;;;;147.77;93.80;;;;;;;;;;5074747;28;20031;-74
2022/11/10 00:17:03;;;;;;;158.18;101.30;;;;;;;;;;5079652;28;20145;-73
2022/11/10 00:19:31;;;;;;;117.97;83.07;;;;;;;;;;5070730;28;20036;-77
2022/11/10 00:21:57;;;;;;;129.50;89.63;;;;;;;;;;5074758;28;20019;-74
2022/11/10 00:24:23;;;;;;;118.43;89.85;;;;;;;;;;5069795;28;20397;-74
2022/11/10 00:26:49;;;;;;;90.10;67.20;;;;;;;;;;5054549;28;20036;-76
2022/11/10 00:29:14;;;;;;;73.50;60.03;;;;;;;;;;5080525;28;20063;-76
2022/11/10 00:31:40;;;;;;;61.63;48.33;;;;;;;;;;5078095;28;20041;-76
2022/11/10 00:34:06;;;;;;;73.47;57.83;;;;;;;;;;5063769;28;20342;-74
2022/11/10 00:36:31;;;;;;;88.28;62.30;;;;;;;;;;5074435;28;20066;-75
2022/11/10 00:38:56;;;;;;;115.63;83.82;;;;;;;;;;5082046;28;20036;-75
2022/11/10 00:41:22;;;;;;;123.97;92.68;;;;;;;;;;5080831;28;20031;-74
2022/11/10 00:43:47;;;;;;;113.22;86.18;;;;;;;;;;5078495;28;20028;-75
2022/11/10 00:46:13;;;;;;;104.63;76.97;;;;;;;;;;5080759;28;20051;-76
2022/11/10 00:48:38;;;;;;;108.13;70.55;;;;;;;;;;5081198;28;20127;-75
2022/11/10 00:51:04;;;;;;;112.57;71.82;;;;;;;;;;5063403;28;20036;-75
2022/11/10 00:53:29;;;;;;;109.13;69.50;;;;;;;;;;5074210;28;20032;-75
2022/11/10 00:55:55;;;;;;;92.88;64.07;;;;;;;;;;5075983;28;20048;-74
2022/11/10 00:58:20;;;;;;;98.30;68.70;;;;;;;;;;5080860;28;20035;-75
2022/11/10 01:00:45;;;;;;;88.53;64.80;;;;;;;;;;5080996;28;20016;-75
2022/11/10 01:03:14;;;;;;;82.78;59.90;;;;;;;;;;5080998;28;20028;-77
2022/11/10 01:05:39;;;;;;;84.63;61.92;;;;;;;;;;5080206;28;20031;-75
2022/11/10 01:08:05;;;;;;;83.63;61.45;;;;;;;;;;5079402;28;20077;-74
2022/11/10 01:10:30;;;;;;;80.78;61.97;;;;;;;;;;5078791;28;20347;-75
2022/11/10 01:12:55;;;;;;;80.78;58.75;;;;;;;;;;5074308;28;20063;-76
2022/11/10 01:15:21;;;;;;;83.47;63.90;;;;;;;;;;5065648;28;20382;-75
2022/11/10 01:17:46;;;;;;;95.68;70.35;;;;;;;;;;5074814;28;20066;-75
2022/11/10 01:20:12;;;;;;;92.63;66.22;;;;;;;;;;5072626;28;20036;-76
2022/11/10 01:22:37;;;;;;;81.35;61.83;;;;;;;;;;5079970;28;20055;-77
2022/11/10 01:25:03;;;;;;;63.15;49.58;;;;;;;;;;5080417;28;20038;-75
2022/11/10 01:27:28;;;;;;;70.57;58.40;;;;;;;;;;5080231;28;20020;-76
2022/11/10 01:29:54;;;;;;;75.75;56.53;;;;;;;;;;5083277;28;20069;-74
2022/11/10 01:32:19;;;;;;;85.82;62.65;;;;;;;;;;5081916;28;20085;-74
2022/11/10 01:34:44;;;;;;;88.97;63.78;;;;;;;;;;5073805;28;20027;-74
2022/11/10 01:37:10;;;;;;;99.72;77.38;;;;;;;;;;5083711;28;20447;-74
2022/11/10 01:39:35;;;;;;;98.22;74.00;;;;;;;;;;5083206;28;20400;-75
2022/11/10 01:42:01;;;;;;;97.28;68.55;;;;;;;;;;5082900;28;20028;-74
2022/11/10 01:44:26;;;;;;;94.28;69.03;;;;;;;;;;5082131;28;20097;-75
2022/11/10 01:46:52;;;;;;;120.70;88.60;;;;;;;;;;5081881;28;20150;-74
2022/11/10 01:49:19;;;;;;;106.13;74.53;;;;;;;;;;5082682;28;20059;-76
2022/11/10 01:51:57;;;;;;;98.50;68.50;;;;;;;;;;5083153;28;20032;-73
2022/11/10 01:54:25;;;;;;;98.15;63.92;;;;;;;;;;5083843;28;20116;-72
2022/11/10 01:56:52;;;;;;;100.20;61.58;;;;;;;;;;5082419;28;20032;-73
2022/11/10 01:59:29;;;;;;;100.18;62.15;;;;;;;;;;5081942;28;20102;-73
2022/11/10 02:01:57;;;;;;;113.72;71.63;;;;;;;;;;5083438;28;20078;-73
2022/11/10 02:04:23;;;;;;;116.15;67.10;;;;;;;;;;5083108;28;20024;-73
2022/11/10 02:06:49;;;;;;;122.10;83.30;;;;;;;;;;5084431;28;20046;-73
2022/11/10 02:09:15;;;;;;;127.03;91.88;;;;;;;;;;5083377;28;21944;-73
2022/11/10 02:11:41;;;;;;;134.15;99.38;;;;;;;;;;5081795;28;20071;-73
2022/11/10 02:14:06;;;;;;;120.82;86.40;;;;;;;;;;5083774;28;20432;-75
2022/11/10 02:16:32;;;;;;;114.80;83.78;;;;;;;;;;5083712;28;20032;-74
2022/11/10 02:19:09;;;;;;;103.28;74.05;;;;;;;;;;5078260;28;20052;-73
2022/11/10 02:21:36;;;;;;;112.25;77.05;;;;;;;;;;5075937;28;20071;-73
2022/11/10 02:24:01;;;;;;;104.80;69.20;;;;;;;;;;5083699;28;20120;-72
2022/11/10 02:26:28;;;;;;;103.13;70.53;;;;;;;;;;5080457;28;20035;-74
2022/11/10 02:28:54;;;;;;;94.82;65.80;;;;;;;;;;5081173;28;20043;-76
2022/11/10 02:31:19;;;;;;;101.78;71.65;;;;;;;;;;5083653;28;20024;-75
2022/11/10 02:33:44;;;;;;;127.63;75.85;;;;;;;;;;5080098;28;20020;-74
2022/11/10 02:36:10;;;;;;;90.63;59.20;;;;;;;;;;5081986;28;20064;-74
2022/11/10 02:38:35;;;;;;;94.35;61.47;;;;;;;;;;5083969;28;20071;-75
2022/11/10 02:41:01;;;;;;;81.43;56.10;;;;;;;;;;5083130;28;20074;-74
2022/11/10 02:43:26;;;;;;;88.72;59.85;;;;;;;;;;5081928;28;20012;-74
2022/11/10 02:45:51;;;;;;;87.80;57.85;;;;;;;;;;5078225;28;20042;-75
2022/11/10 02:48:17;;;;;;;87.70;57.05;;;;;;;;;;5070734;28;20521;-74
2022/11/10 02:50:42;;;;;;;94.88;63.72;;;;;;;;;;5074596;28;20031;-78
2022/11/10 02:53:07;;;;;;;99.68;63.80;;;;;;;;;;5077756;28;20026;-74
2022/11/10 02:55:33;;;;;;;108.18;68.97;;;;;;;;;;5078300;28;20020;-74
2022/11/10 02:57:58;;;;;;;98.30;67.32;;;;;;;;;;5082138;28;20229;-74
2022/11/10 03:00:24;;;;;;;90.93;63.05;;;;;;;;;;5081578;28;20028;-75
2022/11/10 03:02:56;;;;;;;87.95;64.00;;;;;;;;;;5082239;28;20103;-74
2022/11/10 03:05:22;;;;;;;94.05;64.18;;;;;;;;;;5081876;28;20100;-75
2022/11/10 03:07:54;;;;;;;86.68;57.58;;;;;;;;;;5081624;28;20032;-75
2022/11/10 03:10:19;;;;;;;83.28;55.65;;;;;;;;;;5079481;28;20031;-75
2022/11/10 03:12:45;;;;;;;83.07;55.58;;;;;;;;;;5082789;28;20035;-73
2022/11/10 03:15:11;;;;;;;78.50;54.92;;;;;;;;;;5081234;28;20028;-76
2022/11/10 03:17:37;;;;;;;76.35;54.20;;;;;;;;;;5080215;28;20064;-74
2022/11/10 03:20:03;;;;;;;72.50;51.67;;;;;;;;;;5081486;28;20751;-74
2022/11/10 03:22:28;;;;;;;79.20;56.80;;;;;;;;;;5081131;28;20387;-76
2022/11/10 03:24:53;;;;;;;77.40;55.60;;;;;;;;;;5078628;28;20024;-73
2022/11/10 03:27:19;;;;;;;69.80;52.22;;;;;;;;;;5074841;28;20027;-74
2022/11/10 03:29:44;;;;;;;66.55;46.47;;;;;;;;;;5082129;28;20036;-76
2022/11/10 03:32:09;;;;;;;64.18;46.67;;;;;;;;;;5078796;28;20034;-75
2022/11/10 03:34:35;;;;;;;65.43;45.63;;;;;;;;;;5081541;28;20016;-73
2022/11/10 03:37:00;;;;;;;58.80;45.20;;;;;;;;;;5082084;28;20028;-74
2022/11/10 03:39:26;;;;;;;58.53;42.58;;;;;;;;;;5079729;28;20032;-74
2022/11/10 03:41:51;;;;;;;52.17;42.38;;;;;;;;;;5080492;28;20431;-74
2022/11/10 03:44:16;;;;;;;53.42;40.13;;;;;;;;;;5079936;28;20024;-74
2022/11/10 03:46:42;;;;;;;47.28;35.92;;;;;;;;;;5081087;28;20450;-74
2022/11/10 03:49:07;;;;;;;49.70;37.20;;;;;;;;;;5082368;28;20036;-78
2022/11/10 03:51:32;;;;;;;51.80;40.45;;;;;;;;;;5081150;28;20110;-75
2022/11/10 03:53:58;;;;;;;46.10;36.85;;;;;;;;;;5082577;28;20070;-73
2022/11/10 03:56:23;;;;;;;48.92;38.33;;;;;;;;;;5071373;28;20047;-75
2022/11/10 03:58:48;;;;;;;50.83;39.85;;;;;;;;;;5079617;28;20063;-74
2022/11/10 04:01:14;;;;;;;45.92;37.53;;;;;;;;;;5079549;28;20028;-74
2022/11/10 04:03:39;;;;;;;45.75;37.03;;;;;;;;;;5079710;28;20032;-73
2022/11/10 04:09:00;;;;;;;41.13;33.90;;;;;;;;;;5072397;28;20050;-78
2022/11/10 04:16:54;;;;;;;52.22;39.03;;;;;;;;;;5077717;28;20520;-74
2022/11/10 04:19:20;;;;;;;48.55;38.30;;;;;;;;;;5070770;28;20076;-73
2022/11/10 04:21:45;;;;;;;53.38;40.92;;;;;;;;;;5061087;28;20024;-75
2022/11/10 04:24:10;;;;;;;52.28;39.55;;;;;;;;;;5081803;28;20450;-74
2022/11/10 04:26:37;;;;;;;55.35;41.83;;;;;;;;;;5080561;28;20371;-74
2022/11/10 04:29:10;;;;;;;53.17;41.45;;;;;;;;;;5080207;28;20036;-74
2022/11/10 04:31:36;;;;;;;52.13;41.53;;;;;;;;;;5080220;28;20050;-74
2022/11/10 04:34:03;;;;;;;53.13;41.13;;;;;;;;;;5081071;28;20031;-74
2022/11/10 04:36:29;;;;;;;48.22;38.25;;;;;;;;;;5079769;28;20016;-76
2022/11/10 04:38:55;;;;;;;43.42;35.33;;;;;;;;;;5062216;28;20024;-75
2022/11/10 04:41:21;;;;;;;44.28;35.30;;;;;;;;;;5080736;28;20032;-76
2022/11/10 04:43:46;;;;;;;41.10;33.40;;;;;;;;;;5075038;28;20424;-73
2022/11/10 04:46:25;;;;;;;47.30;33.85;;;;;;;;;;5076065;28;20055;-73
2022/11/10 04:48:51;;;;;;;50.25;40.40;;;;;;;;;;5079207;28;20036;-73
2022/11/10 04:51:17;;;;;;;49.35;40.42;;;;;;;;;;5080772;28;20434;-73
2022/11/10 04:53:43;;;;;;;47.50;36.75;;;;;;;;;;5080930;28;20024;-73
2022/11/10 04:56:15;;;;;;;48.75;37.40;;;;;;;;;;5080530;28;20089;-73
2022/11/10 04:58:41;;;;;;;52.47;38.55;;;;;;;;;;5080500;28;20047;-72
2022/11/10 05:01:06;;;;;;;49.38;41.00;;;;;;;;;;5075266;28;20443;-75
2022/11/10 05:03:31;;;;;;;46.15;35.97;;;;;;;;;;5066055;28;20140;-74
2022/11/10 05:05:57;;;;;;;50.83;36.90;;;;;;;;;;5068584;28;20470;-73
2022/11/10 05:08:22;;;;;;;47.50;34.92;;;;;;;;;;5071460;28;21055;-75
2022/11/10 05:10:47;;;;;;;45.25;37.30;;;;;;;;;;5068828;28;20470;-75
2022/11/10 05:13:13;;;;;;;55.58;40.85;;;;;;;;;;5065705;28;20574;-74
2022/11/10 05:15:40;;;;;;;52.30;40.92;;;;;;;;;;5068585;28;20032;-73
2022/11/10 05:18:05;;;;;;;72.82;50.70;;;;;;;;;;5076439;28;20079;-72
2022/11/10 05:20:30;;;;;;;91.15;63.15;;;;;;;;;;5072205;28;20055;-75
2022/11/10 05:25:57;;;;;;;180.73;101.95;;;;;;;;;;5040854;28;20029;-73
2022/11/10 05:28:22;;;;;;;198.05;106.45;;;;;;;;;;5040780;28;20044;-75
2022/11/10 05:30:48;;;;;;;128.48;72.30;;;;;;;;;;5031588;28;20528;-73
2022/11/10 05:33:13;;;;;;;80.90;51.50;;;;;;;;;;5028357;28;20447;-76
2022/11/10 05:35:39;;;;;;;67.30;48.72;;;;;;;;;;5031407;28;20126;-76
2022/11/10 05:38:04;;;;;;;112.13;75.90;;;;;;;;;;5037998;28;20037;-73
2022/11/10 05:40:30;;;;;;;97.35;66.18;;;;;;;;;;5028093;28;20459;-73
2022/11/10 05:42:55;;;;;;;94.93;67.50;;;;;;;;;;5039748;28;20122;-73
2022/11/10 05:45:22;;;;;;;192.02;150.15;;;;;;;;;;5027458;28;20138;-77
2022/11/10 05:47:47;;;;;;;97.47;72.75;;;;;;;;;;5038644;28;20037;-76
2022/11/10 05:50:13;;;;;;;76.80;56.50;;;;;;;;;;5041659;28;20033;-75
2022/11/10 05:52:40;;;;;;;100.40;64.20;;;;;;;;;;5040399;28;20045;-75
2022/11/10 05:55:06;;;;;;;112.47;82.65;;;;;;;;;;5036640;28;20044;-75
2022/11/10 05:57:32;;;;;;;78.68;56.25;;;;;;;;;;5039566;28;20025;-75
2022/11/10 05:59:57;;;;;;;84.43;59.55;;;;;;;;;;5060142;28;20047;-77
2022/11/10 06:02:22;;;;;;;82.00;54.88;;;;;;;;;;5082860;28;20024;-76
2022/11/10 06:04:48;;;;;;;77.43;53.55;;;;;;;;;;5078166;28;20024;-77
2022/11/10 06:07:13;;;;;;;95.10;64.78;;;;;;;;;;5074569;28;20664;-75
2022/11/10 06:09:38;;;;;;;81.80;59.45;;;;;;;;;;5083232;28;20542;-75
2022/11/10 06:12:04;;;;;;;129.90;92.93;;;;;;;;;;5078603;28;20081;-75
2022/11/10 06:14:29;;;;;;;78.38;51.42;;;;;;;;;;5069389;28;20089;-76
2022/11/10 06:16:55;;;;;;;62.15;43.00;;;;;;;;;;5073750;28;20032;-75
2022/11/10 06:19:20;;;;;;;59.08;45.25;;;;;;;;;;5069532;28;20157;-75
2022/11/10 06:21:45;;;;;;;60.75;43.40;;;;;;;;;;5068496;28;20031;-75
2022/11/10 06:24:11;;;;;;;49.40;38.15;;;;;;;;;;5069495;28;20056;-76
2022/11/10 06:26:36;;;;;;;46.95;37.40;;;;;;;;;;5072305;28;20456;-76
2022/11/10 06:29:01;;;;;;;64.32;39.80;;;;;;;;;;5063406;28;20036;-74
2022/11/10 06:31:27;;;;;;;55.88;39.85;;;;;;;;;;5082240;28;20024;-75
2022/11/10 06:33:52;;;;;;;45.10;36.42;;;;;;;;;;5081528;28;20023;-76
2022/11/10 06:36:18;;;;;;;46.13;34.08;;;;;;;;;;5081363;28;20020;-75
2022/11/10 06:38:43;;;;;;;57.95;42.78;;;;;;;;;;5082282;28;20408;-75
2022/11/10 06:41:08;;;;;;;58.42;46.50;;;;;;;;;;5082328;28;20035;-75
2022/11/10 06:43:34;;;;;;;51.05;38.35;;;;;;;;;;5083192;28;20020;-75
2022/11/10 06:45:59;;;;;;;49.00;36.67;;;;;;;;;;5082609;28;20016;-76
2022/11/10 06:48:25;;;;;;;66.80;38.95;;;;;;;;;;5081903;28;20031;-74
2022/11/10 06:50:50;;;;;;;54.28;40.25;;;;;;;;;;5082090;28;20119;-75
2022/11/10 06:53:16;;;;;;;46.03;37.72;;;;;;;;;;5080030;28;20413;-74
2022/11/10 06:55:41;;;;;;;45.30;34.15;;;;;;;;;;5083276;28;20031;-74
2022/11/10 06:58:07;;;;;;;42.28;35.53;;;;;;;;;;5081033;28;20051;-73
2022/11/10 07:00:33;;;;;;;40.35;34.30;;;;;;;;;;5072648;28;20055;-74
2022/11/10 07:03:02;;;;;;;39.83;34.65;;;;;;;;;;5068473;28;20028;-75
2022/11/10 07:05:28;;;;;;;48.83;39.53;;;;;;;;;;5069326;28;20078;-74
2022/11/10 07:07:53;;;;;;;38.58;34.40;;;;;;;;;;5068642;28;20051;-73
2022/11/10 07:10:18;;;;;;;45.95;38.85;;;;;;;;;;5072475;28;20090;-74
2022/11/10 07:12:44;;;;;;;38.58;33.25;;;;;;;;;;5068623;28;20103;-75
2022/11/10 07:15:09;;;;;;;43.75;37.67;;;;;;;;;;5067511;28;20351;-74
2022/11/10 07:17:39;;;;;;;41.90;36.17;;;;;;;;;;5073127;28;20044;-72
2022/11/10 07:20:05;;;;;;;37.53;33.45;;;;;;;;;;5080894;28;20028;-74
2022/11/10 07:22:30;;;;;;;35.72;31.92;;;;;;;;;;5070477;28;20451;-74
2022/11/10 07:24:56;;;;;;;38.83;34.83;;;;;;;;;;5081462;28;20060;-73
2022/11/10 07:27:22;;;;;;;39.28;35.13;;;;;;;;;;5056519;28;20059;-74
2022/11/10 07:29:47;;;;;;;37.78;33.88;;;;;;;;;;5063554;28;20120;-73
2022/11/10 07:32:13;;;;;;;41.33;36.25;;;;;;;;;;5068576;28;20346;-73
2022/11/10 07:34:39;;;;;;;38.33;34.22;;;;;;;;;;5073897;28;20035;-71
2022/11/10 07:37:04;;;;;;;40.80;35.97;;;;;;;;;;5055679;28;20023;-72
2022/11/10 07:39:30;;;;;;;45.85;40.65;;;;;;;;;;5080841;28;20030;-73
2022/11/10 07:41:56;;;;;;;43.95;39.15;;;;;;;;;;5078449;28;20027;-74
2022/11/10 07:44:22;;;;;;;46.13;41.03;;;;;;;;;;5075413;28;20131;-73
2022/11/10 07:46:47;;;;;;;47.35;42.25;;;;;;;;;;5076749;28;20170;-73
2022/11/10 07:49:12;;;;;;;38.55;34.45;;;;;;;;;;5067716;28;20374;-72
2022/11/10 07:51:38;;;;;;;41.78;37.30;;;;;;;;;;5068028;28;20085;-76
2022/11/10 07:54:04;;;;;;;42.90;37.15;;;;;;;;;;5066950;28;20359;-74
2022/11/10 07:56:29;;;;;;;41.47;36.97;;;;;;;;;;5067290;28;20035;-75
2022/11/10 07:58:55;;;;;;;39.55;33.85;;;;;;;;;;5067469;28;20036;-74
2022/11/10 08:01:20;;;;;;;43.10;38.28;;;;;;;;;;5067984;28;20024;-74
2022/11/10 08:03:46;;;;;;;45.70;40.72;;;;;;;;;;5067184;28;20016;-74
2022/11/10 08:06:11;;;;;;;45.53;40.72;;;;;;;;;;5067441;28;20063;-73
2022/11/10 08:08:36;;;;;;;61.42;47.80;;;;;;;;;;5067886;28;20104;-73
2022/11/10 08:11:02;;;;;;;65.10;54.00;;;;;;;;;;5068355;28;20487;-73
2022/11/10 08:13:27;;;;;;;42.03;37.33;;;;;;;;;;5067607;28;20085;-73
2022/11/10 08:15:53;;;;;;;95.43;59.72;;;;;;;;;;5067809;28;22104;-73
2022/11/10 08:18:19;;;;;;;319.90;145.13;;;;;;;;;;5067606;28;20059;-76
2022/11/10 08:20:45;;;;;;;526.58;279.65;;;;;;;;;;5068239;28;20031;-72
2022/11/10 08:23:10;;;;;;;171.52;94.93;;;;;;;;;;5067558;28;20024;-72
2022/11/10 08:25:36;;;;;;;87.45;55.53;;;;;;;;;;5067900;28;20028;-73
2022/11/10 08:28:03;;;;;;;59.30;45.58;;;;;;;;;;5067376;28;20528;-72
2022/11/10 08:30:29;;;;;;;52.45;45.45;;;;;;;;;;5067125;28;20032;-73
2022/11/10 08:32:59;;;;;;;91.63;64.18;;;;;;;;;;5067407;28;20404;-73
2022/11/10 08:35:25;;;;;;;96.22;69.03;;;;;;;;;;5067274;28;20074;-73
2022/11/10 08:37:51;;;;;;;66.13;54.22;;;;;;;;;;5070359;28;20039;-72
2022/11/10 08:40:17;;;;;;;135.27;88.38;;;;;;;;;;5072133;28;20355;-73
2022/11/10 08:42:42;;;;;;;118.43;91.25;;;;;;;;;;5070517;28;20032;-72
2022/11/10 08:45:08;;;;;;;89.43;78.07;;;;;;;;;;5072442;28;20447;-75
2022/11/10 08:47:33;;;;;;;86.05;75.40;;;;;;;;;;5070684;28;20024;-72
2022/11/10 08:49:59;;;;;;;78.97;68.25;;;;;;;;;;5072135;28;20141;-74
2022/11/10 08:52:24;;;;;;;73.40;65.65;;;;;;;;;;5071411;28;20410;-74
2022/11/10 08:54:49;;;;;;;203.30;132.10;;;;;;;;;;5070604;28;20020;-72
2022/11/10 08:57:16;;;;;;;97.78;79.78;;;;;;;;;;5071850;28;20043;-74
2022/11/10 08:59:41;;;;;;;84.75;75.10;;;;;;;;;;5071650;28;20028;-72
2022/11/10 09:02:11;;;;;;;64.13;57.35;;;;;;;;;;5071630;28;20032;-73
2022/11/10 09:04:36;;;;;;;58.45;52.22;;;;;;;;;;5071210;28;20061;-73
2022/11/10 09:07:02;;;;;;;51.75;46.38;;;;;;;;;;5071340;28;20027;-71
2022/11/10 09:09:28;;;;;;;47.80;42.72;;;;;;;;;;5070631;28;20047;-72
2022/11/10 09:11:54;;;;;;;44.05;39.35;;;;;;;;;;5070517;28;20115;-74
2022/11/10 09:14:19;;;;;;;42.30;37.72;;;;;;;;;;5070469;28;20111;-76
2022/11/10 09:16:45;;;;;;;42.78;38.17;;;;;;;;;;5070371;28;20027;-74
2022/11/10 09:19:10;;;;;;;39.17;35.03;;;;;;;;;;5069578;28;21034;-72
2022/11/10 09:21:36;;;;;;;39.35;34.45;;;;;;;;;;5070126;28;20344;-72
2022/11/10 09:24:02;;;;;;;37.92;33.92;;;;;;;;;;5071559;28;20461;-71
2022/11/10 09:26:27;;;;;;;34.03;30.52;;;;;;;;;;5071014;28;20032;-77
2022/11/10 09:28:52;;;;;;;36.25;32.45;;;;;;;;;;5069522;28;20040;-72
2022/11/10 09:31:19;;;;;;;33.92;30.40;;;;;;;;;;5069787;28;20367;-74
2022/11/10 09:33:45;;;;;;;34.03;30.25;;;;;;;;;;5070437;28;20115;-75
2022/11/10 09:36:10;;;;;;;35.60;31.80;;;;;;;;;;5069804;28;20168;-72
2022/11/10 09:38:35;;;;;;;35.03;31.20;;;;;;;;;;5071007;28;20462;-74
2022/11/10 09:41:03;;;;;;;36.53;31.05;;;;;;;;;;5071164;28;20416;-73
2022/11/10 09:43:31;;;;;;;38.15;34.10;;;;;;;;;;5073435;28;20039;-74
2022/11/10 09:45:58;;;;;;;34.67;31.13;;;;;;;;;;5071225;28;20035;-72
2022/11/10 09:48:28;;;;;;;34.63;31.17;;;;;;;;;;5070013;28;20017;-72
2022/11/10 09:50:53;;;;;;;36.00;29.02;;;;;;;;;;5070010;28;20082;-72
2022/11/10 09:53:52;;;;;;;33.78;30.45;;;;;;;;;;5070089;28;20390;-72
2022/11/10 09:56:19;;;;;;;34.80;31.13;;;;;;;;;;5040252;28;20024;-73
2022/11/10 09:58:45;;;;;;;34.83;31.08;;;;;;;;;;5069569;28;20012;-72
2022/11/10 10:01:29;;;;;;;36.85;31.27;;;;;;;;;;5068998;28;20036;-72
2022/11/10 10:04:20;;;;;;;33.25;29.88;;;;;;;;;;5067184;28;20066;-73
2022/11/10 10:07:07;;;;;;;33.67;30.17;;;;;;;;;;5033894;28;20184;-72
2022/11/10 10:09:36;;;;;;;34.08;30.02;;;;;;;;;;5069106;28;20043;-73
2022/11/10 10:12:14;;;;;;;47.80;39.55;;;;;;;;;;5077585;28;20151;-70
2022/11/10 10:14:39;;;;;;;71.47;60.53;;;;;;;;;;5073799;28;20032;-73
2022/11/10 10:17:16;;;;;;;46.03;38.85;;;;;;;;;;5070147;28;20035;-72
2022/11/10 10:19:47;;;;;;;40.35;36.05;;;;;;;;;;5069585;28;20059;-73
2022/11/10 10:22:18;;;;;;;36.90;31.80;;;;;;;;;;5070848;28;20385;-72
2022/11/10 10:24:44;;;;;;;36.88;33.08;;;;;;;;;;5048003;28;20036;-71
2022/11/10 10:27:11;;;;;;;40.15;36.00;;;;;;;;;;5070364;28;20462;-71
2022/11/10 10:29:42;;;;;;;36.08;32.25;;;;;;;;;;5069876;28;20059;-72
2022/11/10 10:32:11;;;;;;;31.20;28.00;;;;;;;;;;5068168;28;20092;-72
2022/11/10 10:34:37;;;;;;;;;;;;;;;;;;5070396;28;20444;-71
2022/11/10 10:37:02;;;;;;;31.73;28.20;;;;;;;;;;5069574;28;19994;-73
2022/11/10 10:39:33;;;;;;;34.90;29.92;;;;;;;;;;5070063;28;20688;-72
2022/11/10 10:41:59;;;;;;;36.63;32.92;;;;;;;;;;5069314;28;20351;-73
2022/11/10 10:44:25;;;;;;;38.15;34.08;;;;;;;;;;5069452;28;20031;-75
2022/11/10 10:46:54;;;;;;;35.92;32.08;;;;;;;;;;5068900;28;20032;-71
2022/11/10 10:49:21;;;;;;;31.17;27.92;;;;;;;;;;5069570;28;20043;-71
2022/11/10 10:51:46;;;;;;;33.15;29.77;;;;;;;;;;5069731;28;20102;-71
2022/11/10 10:54:24;;;;;;;33.50;29.95;;;;;;;;;;5066358;28;20146;-72
2022/11/10 10:56:49;;;;;;;45.53;37.50;;;;;;;;;;5068824;28;20024;-74
2022/11/10 10:59:19;;;;;;;33.25;29.55;;;;;;;;;;5051560;28;20414;-73
2022/11/10 11:01:45;;;;;;;32.40;28.90;;;;;;;;;;5065892;28;20020;-71
2022/11/10 11:04:27;;;;;;;36.80;28.52;;;;;;;;;;5069429;28;20020;-71
2022/11/10 11:06:59;;;;;;;37.65;32.53;;;;;;;;;;5070768;28;20034;-74
2022/11/10 11:09:26;;;;;;;26.15;21.85;;;;;;;;;;5069805;28;20063;-71
2022/11/10 11:11:58;;;;;;;23.60;21.15;;;;;;;;;;5068077;28;20350;-71
2022/11/10 11:14:25;;;;;;;31.63;27.67;;;;;;;;;;5069507;28;20504;-73
2022/11/10 11:16:52;;;;;;;26.35;23.55;;;;;;;;;;5069799;28;20028;-73
2022/11/10 11:19:18;;;;;;;24.20;21.85;;;;;;;;;;5069222;28;20370;-72
2022/11/10 11:21:46;;;;;;;20.73;18.83;;;;;;;;;;5069773;28;20470;-73
2022/11/10 11:24:18;;;;;;;21.73;19.25;;;;;;;;;;5069076;28;20024;-72
2022/11/10 11:26:58;;;;;;;18.27;16.48;;;;;;;;;;5068706;28;20333;-74
2022/11/10 11:29:26;;;;;;;20.98;18.77;;;;;;;;;;5068144;28;20028;-73
2022/11/10 11:31:58;;;;;;;22.00;19.80;;;;;;;;;;5067899;28;20020;-75
2022/11/10 11:34:23;;;;;;;21.90;19.60;;;;;;;;;;5068734;28;20047;-72
2022/11/10 11:37:05;;;;;;;22.17;19.98;;;;;;;;;;5073141;28;20020;-75
2022/11/10 11:39:44;;;;;;;23.65;21.23;;;;;;;;;;5069079;28;20041;-75
2022/11/10 11:42:10;;;;;;;;;;;;;;;;;;5069016;28;20031;-74
2022/11/10 11:44:53;;;;;;;21.60;19.50;;;;;;;;;;5069175;28;19920;-72
2022/11/10 11:47:19;;;;;;;22.73;20.38;;;;;;;;;;5067454;28;20359;-72
2022/11/10 11:49:47;;;;;;;25.85;23.38;;;;;;;;;;5068325;28;20043;-71
2022/11/10 11:52:15;;;;;;;23.60;21.15;;;;;;;;;;5053262;28;20024;-71
2022/11/10 11:54:44;;;;;;;22.20;19.98;;;;;;;;;;5069148;28;20451;-74
2022/11/10 11:57:17;;;;;;;22.95;20.42;;;;;;;;;;5066695;28;20035;-71
2022/11/10 11:59:42;;;;;;;22.02;19.88;;;;;;;;;;5068398;28;20455;-71
2022/11/10 12:02:23;;;;;;;21.70;19.52;;;;;;;;;;5077208;28;20038;-72
2022/11/10 12:04:51;;;;;;;19.05;17.00;;;;;;;;;;5079307;28;20102;-71
2022/11/10 12:07:41;;;;;;;23.42;17.60;;;;;;;;;;5080112;28;20468;-71
2022/11/10 12:10:19;;;;;;;20.35;18.13;;;;;;;;;;5061352;28;20043;-71
2022/11/10 12:12:56;;;;;;;20.65;18.65;;;;;;;;;;5080143;28;20024;-71
2022/11/10 12:15:36;;;;;;;20.13;18.13;;;;;;;;;;5080258;28;20039;-74
2022/11/10 12:18:11;;;;;;;23.17;20.80;;;;;;;;;;5079958;28;20494;-75
2022/11/10 12:20:36;;;;;;;22.48;20.17;;;;;;;;;;5082239;28;20035;-72
2022/11/10 12:23:07;;;;;;;21.98;19.75;;;;;;;;;;5078401;28;20025;-72
2022/11/10 12:25:36;;;;;;;22.50;20.30;;;;;;;;;;5080673;28;20098;-71
2022/11/10 12:28:10;;;;;;;19.77;17.87;;;;;;;;;;5077520;28;20381;-73
2022/11/10 12:30:36;;;;;;;24.35;19.77;;;;;;;;;;5078096;28;20443;-74
2022/11/10 12:33:11;;;;;;;21.50;19.20;;;;;;;;;;5079873;28;20035;-72
2022/11/10 12:35:39;;;;;;;25.05;22.55;;;;;;;;;;5078201;28;20021;-73
2022/11/10 12:38:16;;;;;;;23.10;20.70;;;;;;;;;;5080458;28;20100;-73
2022/11/10 12:40:47;;;;;;;21.00;18.95;;;;;;;;;;5078771;28;20119;-71
2022/11/10 12:43:32;;;;;;;25.90;22.88;;;;;;;;;;5079980;28;20051;-72
2022/11/10 12:46:00;;;;;;;28.30;19.05;;;;;;;;;;5079145;28;20148;-74
2022/11/10 12:48:30;;;;;;;26.02;23.33;;;;;;;;;;5080276;28;20024;-73
2022/11/10 12:51:20;;;;;;;27.23;20.88;;;;;;;;;;5079571;28;20070;-71
2022/11/10 12:53:46;;;;;;;25.50;22.17;;;;;;;;;;5068976;28;21208;-72
2022/11/10 12:56:17;;;;;;;22.80;20.45;;;;;;;;;;5080677;28;20533;-72
2022/11/10 12:58:43;;;;;;;23.55;21.23;;;;;;;;;;5080754;28;20020;-71
2022/11/10 13:01:16;;;;;;;20.05;18.15;;;;;;;;;;5079879;28;20024;-71
2022/11/10 13:03:55;;;;;;;20.88;18.73;;;;;;;;;;5078460;28;20105;-71
2022/11/10 13:06:28;;;;;;;22.10;19.67;;;;;;;;;;5080371;28;20027;-72
2022/11/10 13:08:54;;;;;;;20.92;18.92;;;;;;;;;;5081841;28;20032;-73
2022/11/10 13:11:25;;;;;;;22.08;19.88;;;;;;;;;;5079096;28;20028;-73
2022/11/10 13:13:53;;;;;;;23.58;21.05;;;;;;;;;;5078778;28;20023;-73
2022/11/10 13:16:43;;;;;;;22.00;19.80;;;;;;;;;;5079913;28;20431;-71
2022/11/10 13:19:37;;;;;;;22.42;20.05;;;;;;;;;;5075942;28;20048;-74
2022/11/10 13:22:10;;;;;;;27.63;25.00;;;;;;;;;;4998943;28;20038;-71
2022/11/10 13:24:39;;;;;;;24.17;21.70;;;;;;;;;;5001562;28;20064;-72
2022/11/10 13:27:04;;;;;;;;;;;;;;;;;;5004360;28;20042;-71
2022/11/10 13:29:34;;;;;;;22.73;20.53;;;;;;;;;;5004804;28;19976;-72
2022/11/10 13:32:14;;;;;;;29.80;25.50;;;;;;;;;;5003640;28;20375;-73
2022/11/10 13:34:40;;;;;;;26.90;22.20;;;;;;;;;;5004343;28;20038;-73
2022/11/10 13:37:41;;;;;;;24.23;21.73;;;;;;;;;;5003790;28;20602;-70
2022/11/10 13:40:24;;;;;;;24.80;22.33;;;;;;;;;;4946989;28;20043;-70
2022/11/10 13:43:10;;;;;;;25.67;23.00;;;;;;;;;;4947003;28;20047;-73
2022/11/10 13:45:38;;;;;;;24.92;22.23;;;;;;;;;;4944517;28;20363;-72
2022/11/10 13:48:09;;;;;;;29.08;26.08;;;;;;;;;;4946197;28;20055;-72
2022/11/10 13:50:35;;;;;;;25.05;22.42;;;;;;;;;;4944660;28;20075;-72
2022/11/10 13:53:23;;;;;;;26.33;23.73;;;;;;;;;;4946858;28;20074;-72
2022/11/10 13:55:59;;;;;;;25.00;22.27;;;;;;;;;;4940574;28;20122;-71
2022/11/10 13:58:24;;;;;;;25.05;22.48;;;;;;;;;;4963303;28;20038;-73
2022/11/10 14:01:09;;;;;;;24.58;22.17;;;;;;;;;;5000448;28;20069;-74
2022/11/10 14:03:43;;;;;;;24.83;22.10;;;;;;;;;;4997901;28;20030;-73
2022/11/10 14:06:13;;;;;;;25.10;22.50;;;;;;;;;;4994486;28;20026;-75
2022/11/10 14:08:38;;;;;;;;;;;;;;;;;;4987218;28;20123;-74
2022/11/10 14:11:05;;;;;;;25.57;22.67;;;;;;;;;;4996163;28;20365;-74
2022/11/10 14:13:41;;;;;;;25.10;22.60;;;;;;;;;;5019725;28;20639;-73
2022/11/10 14:16:15;;;;;;;27.45;24.77;;;;;;;;;;5080606;28;20024;-75
2022/11/10 14:18:45;;;;;;;27.83;24.85;;;;;;;;;;5069974;28;20036;-74
2022/11/10 14:21:19;;;;;;;28.50;25.50;;;;;;;;;;5069894;28;20113;-75
2022/11/10 14:23:52;;;;;;;29.42;26.25;;;;;;;;;;5081299;28;20023;-73
2022/11/10 14:26:27;;;;;;;29.42;26.38;;;;;;;;;;5084655;28;20020;-73
2022/11/10 14:28:53;;;;;;;32.00;28.65;;;;;;;;;;5071381;28;20028;-74
2022/11/10 14:31:19;;;;;;;38.67;33.38;;;;;;;;;;5082724;28;20024;-75
2022/11/10 14:33:55;;;;;;;33.05;28.88;;;;;;;;;;5082096;28;20031;-74
2022/11/10 14:36:21;;;;;;;42.72;38.35;;;;;;;;;;5081168;28;20615;-75